sensor_id;sensor_type;location;lat;lon;timestamp;temperature;humidity
25718;DHT22;13574;52.040;5.692;2023-02-18T00:00:00;14.50;99.90
25718;DHT22;13574;52.040;5.692;2023-02-18T00:02:26;14.60;99.90
25718;DHT22;13574;52.040;5.692;2023-02-18T00:04:53;14.60;99.90
25718;DHT22;13574;52.040;5.692;2023-02-18T00:07:19;14.70;99.90
25718;DHT22;13574;52.040;5.692;2023-02-18T00:09:45;14.70;99.90
25718;DHT22;13574;52.040;5.692;2023-02-18T00:12:10;14.50;99.90
25718;DHT22;13574;52.040;5.692;2023-02-18T00:14:37;14.50;99.90
25718;DHT22;13574;52.040;5.692;2023-02-18T00:17:02;14.60;99.90
25718;DHT22;13574;52.040;5.692;2023-02-18T00:19:28;14.60;99.90
25718;DHT22;13574;52.040;5.692;2023-02-18T00:21:54;14.50;99.90
25718;DHT22;13574;52.040;5.692;2023-02-18T00:24:19;14.60;99.90
25718;DHT22;13574;52.040;5.692;2023-02-18T00:26:50;14.50;99.90
25718;DHT22;13574;52.040;5.692;2023-02-18T00:29:16;14.50;99.90
25718;DHT22;13574;52.040;5.692;2023-02-18T00:31:42;14.40;99.90
25718;DHT22;13574;52.040;5.692;2023-02-18T00:34:10;14.20;99.90
25718;DHT22;13574;52.040;5.692;2023-02-18T00:36:36;14.20;99.90
25718;DHT22;13574;52.040;5.692;2023-02-18T00:39:05;14.30;99.90
25718;DHT22;13574;52.040;5.692;2023-02-18T00:41:31;14.30;99.90
25718;DHT22;13574;52.040;5.692;2023-02-18T00:43:57;14.30;99.90
25718;DHT22;13574;52.040;5.692;2023-02-18T00:46:24;14.30;99.90
25718;DHT22;13574;52.040;5.692;2023-02-18T00:48:50;14.20;99.90
25718;DHT22;13574;52.040;5.692;2023-02-18T00:51:15;14.20;99.90
25718;DHT22;13574;52.040;5.692;2023-02-18T00:53:41;13.90;99.90
25718;DHT22;13574;52.040;5.692;2023-02-18T00:56:07;13.90;99.90
25718;DHT22;13574;52.040;5.692;2023-02-18T00:58:34;14.10;99.90
25718;DHT22;13574;52.040;5.692;2023-02-18T01:01:00;14.00;99.90
25718;DHT22;13574;52.040;5.692;2023-02-18T01:03:26;14.10;99.90
25718;DHT22;13574;52.040;5.692;2023-02-18T01:05:52;14.00;99.90
25718;DHT22;13574;52.040;5.692;2023-02-18T01:08:19;13.80;99.90
25718;DHT22;13574;52.040;5.692;2023-02-18T01:10:46;14.00;99.90
25718;DHT22;13574;52.040;5.692;2023-02-18T01:13:13;13.90;99.90
25718;DHT22;13574;52.040;5.692;2023-02-18T01:15:40;13.90;99.90
25718;DHT22;13574;52.040;5.692;2023-02-18T01:18:06;14.00;99.90
25718;DHT22;13574;52.040;5.692;2023-02-18T01:20:33;13.90;99.90
25718;DHT22;13574;52.040;5.692;2023-02-18T01:22:59;13.80;99.90
25718;DHT22;13574;52.040;5.692;2023-02-18T01:25:25;13.80;99.90
25718;DHT22;13574;52.040;5.692;2023-02-18T01:27:50;13.90;99.90
25718;DHT22;13574;52.040;5.692;2023-02-18T01:30:17;13.80;99.90
25718;DHT22;13574;52.040;5.692;2023-02-18T01:32:43;13.80;99.90
25718;DHT22;13574;52.040;5.692;2023-02-18T01:35:15;13.50;99.90
25718;DHT22;13574;52.040;5.692;2023-02-18T01:37:41;13.50;99.90
25718;DHT22;13574;52.040;5.692;2023-02-18T01:40:09;13.50;99.90
25718;DHT22;13574;52.040;5.692;2023-02-18T01:42:35;13.30;99.90
25718;DHT22;13574;52.040;5.692;2023-02-18T01:48:01;13.50;99.90
25718;DHT22;13574;52.040;5.692;2023-02-18T01:50:28;13.70;99.90
25718;DHT22;13574;52.040;5.692;2023-02-18T01:52:53;13.70;99.90
25718;DHT22;13574;52.040;5.692;2023-02-18T01:55:19;13.80;99.90
25718;DHT22;13574;52.040;5.692;2023-02-18T01:57:45;13.60;99.90
25718;DHT22;13574;52.040;5.692;2023-02-18T02:00:14;13.70;99.90
25718;DHT22;13574;52.040;5.692;2023-02-18T02:02:44;13.60;99.90
25718;DHT22;13574;52.040;5.692;2023-02-18T02:05:11;13.70;99.90
25718;DHT22;13574;52.040;5.692;2023-02-18T02:07:38;13.60;99.90
25718;DHT22;13574;52.040;5.692;2023-02-18T02:10:05;13.60;99.90
25718;DHT22;13574;52.040;5.692;2023-02-18T02:26:29;13.70;99.90
25718;DHT22;13574;52.040;5.692;2023-02-18T02:35:09;13.80;99.90
25718;DHT22;13574;52.040;5.692;2023-02-18T02:43:17;13.90;99.90
25718;DHT22;13574;52.040;5.692;2023-02-18T02:45:56;13.80;99.90
25718;DHT22;13574;52.040;5.692;2023-02-18T02:51:29;13.70;99.90
25718;DHT22;13574;52.040;5.692;2023-02-18T02:54:19;13.90;99.90
25718;DHT22;13574;52.040;5.692;2023-02-18T02:56:45;13.90;99.90
25718;DHT22;13574;52.040;5.692;2023-02-18T02:59:19;13.90;99.90
25718;DHT22;13574;52.040;5.692;2023-02-18T03:18:20;13.70;99.90
25718;DHT22;13574;52.040;5.692;2023-02-18T03:20:52;13.60;99.90
25718;DHT22;13574;52.040;5.692;2023-02-18T03:23:24;13.80;99.90
25718;DHT22;13574;52.040;5.692;2023-02-18T03:25:52;13.80;99.90
25718;DHT22;13574;52.040;5.692;2023-02-18T03:28:19;13.60;99.90
25718;DHT22;13574;52.040;5.692;2023-02-18T03:30:50;13.70;99.90
25718;DHT22;13574;52.040;5.692;2023-02-18T03:33:25;13.80;99.90
25718;DHT22;13574;52.040;5.692;2023-02-18T03:35:52;13.90;99.90
25718;DHT22;13574;52.040;5.692;2023-02-18T03:38:27;13.90;99.90
25718;DHT22;13574;52.040;5.692;2023-02-18T03:40:54;13.80;99.90
25718;DHT22;13574;52.040;5.692;2023-02-18T03:43:20;13.80;99.90
25718;DHT22;13574;52.040;5.692;2023-02-18T03:45:46;13.60;99.90
25718;DHT22;13574;52.040;5.692;2023-02-18T03:48:11;13.80;99.90
25718;DHT22;13574;52.040;5.692;2023-02-18T03:50:37;13.90;99.90
25718;DHT22;13574;52.040;5.692;2023-02-18T03:53:03;14.00;99.90
25718;DHT22;13574;52.040;5.692;2023-02-18T03:55:28;14.00;99.90
25718;DHT22;13574;52.040;5.692;2023-02-18T03:57:54;13.80;99.90
25718;DHT22;13574;52.040;5.692;2023-02-18T04:00:20;13.80;99.90
25718;DHT22;13574;52.040;5.692;2023-02-18T04:02:45;13.90;99.90
25718;DHT22;13574;52.040;5.692;2023-02-18T04:05:11;13.80;99.90
25718;DHT22;13574;52.040;5.692;2023-02-18T04:07:37;14.00;99.90
25718;DHT22;13574;52.040;5.692;2023-02-18T04:10:04;14.00;99.90
25718;DHT22;13574;52.040;5.692;2023-02-18T04:12:30;14.00;99.90
25718;DHT22;13574;52.040;5.692;2023-02-18T04:14:56;14.00;99.90
25718;DHT22;13574;52.040;5.692;2023-02-18T04:17:22;14.00;99.90
25718;DHT22;13574;52.040;5.692;2023-02-18T04:19:47;13.90;99.90
25718;DHT22;13574;52.040;5.692;2023-02-18T04:22:13;13.80;99.90
25718;DHT22;13574;52.040;5.692;2023-02-18T04:24:39;13.80;99.90
25718;DHT22;13574;52.040;5.692;2023-02-18T04:27:04;13.80;99.90
25718;DHT22;13574;52.040;5.692;2023-02-18T04:29:30;13.80;99.90
25718;DHT22;13574;52.040;5.692;2023-02-18T04:31:56;14.00;99.90
25718;DHT22;13574;52.040;5.692;2023-02-18T04:34:22;13.80;99.90
25718;DHT22;13574;52.040;5.692;2023-02-18T04:36:47;13.80;99.90
25718;DHT22;13574;52.040;5.692;2023-02-18T04:39:13;13.80;99.90
25718;DHT22;13574;52.040;5.692;2023-02-18T04:41:38;13.80;99.90
25718;DHT22;13574;52.040;5.692;2023-02-18T04:44:04;13.70;99.90
25718;DHT22;13574;52.040;5.692;2023-02-18T04:46:30;13.80;99.90
25718;DHT22;13574;52.040;5.692;2023-02-18T04:48:56;13.70;99.90
25718;DHT22;13574;52.040;5.692;2023-02-18T04:51:21;13.80;99.90
25718;DHT22;13574;52.040;5.692;2023-02-18T04:53:47;13.50;99.90
25718;DHT22;13574;52.040;5.692;2023-02-18T04:56:13;13.40;99.90
25718;DHT22;13574;52.040;5.692;2023-02-18T04:58:38;13.60;99.90
25718;DHT22;13574;52.040;5.692;2023-02-18T05:01:04;13.50;99.90
25718;DHT22;13574;52.040;5.692;2023-02-18T05:03:31;13.50;99.90
25718;DHT22;13574;52.040;5.692;2023-02-18T05:05:57;13.60;99.90
25718;DHT22;13574;52.040;5.692;2023-02-18T05:08:23;13.60;99.90
25718;DHT22;13574;52.040;5.692;2023-02-18T05:10:49;13.50;99.90
25718;DHT22;13574;52.040;5.692;2023-02-18T05:13:14;13.30;99.90
25718;DHT22;13574;52.040;5.692;2023-02-18T05:15:40;13.50;99.90
25718;DHT22;13574;52.040;5.692;2023-02-18T05:18:06;13.60;99.90
25718;DHT22;13574;52.040;5.692;2023-02-18T05:20:32;13.40;99.90
25718;DHT22;13574;52.040;5.692;2023-02-18T05:22:58;13.40;99.90
25718;DHT22;13574;52.040;5.692;2023-02-18T05:25:23;13.40;99.90
25718;DHT22;13574;52.040;5.692;2023-02-18T05:27:52;13.30;99.90
25718;DHT22;13574;52.040;5.692;2023-02-18T05:30:18;13.20;99.90
25718;DHT22;13574;52.040;5.692;2023-02-18T05:32:44;13.30;99.90
25718;DHT22;13574;52.040;5.692;2023-02-18T05:35:09;13.50;99.90
25718;DHT22;13574;52.040;5.692;2023-02-18T05:37:35;13.50;99.90
25718;DHT22;13574;52.040;5.692;2023-02-18T05:40:02;13.50;99.90
25718;DHT22;13574;52.040;5.692;2023-02-18T05:42:28;13.40;99.90
25718;DHT22;13574;52.040;5.692;2023-02-18T05:44:53;13.20;99.90
25718;DHT22;13574;52.040;5.692;2023-02-18T05:47:19;13.20;99.90
25718;DHT22;13574;52.040;5.692;2023-02-18T05:49:45;13.30;99.90
25718;DHT22;13574;52.040;5.692;2023-02-18T05:52:11;13.30;99.90
25718;DHT22;13574;52.040;5.692;2023-02-18T05:54:38;13.10;99.90
25718;DHT22;13574;52.040;5.692;2023-02-18T05:57:03;13.00;99.90
25718;DHT22;13574;52.040;5.692;2023-02-18T05:59:30;13.00;99.90
25718;DHT22;13574;52.040;5.692;2023-02-18T06:01:55;12.90;99.90
25718;DHT22;13574;52.040;5.692;2023-02-18T06:04:21;13.00;99.90
25718;DHT22;13574;52.040;5.692;2023-02-18T06:06:47;13.00;99.90
25718;DHT22;13574;52.040;5.692;2023-02-18T06:09:13;12.70;99.90
25718;DHT22;13574;52.040;5.692;2023-02-18T06:11:39;12.70;99.90
25718;DHT22;13574;52.040;5.692;2023-02-18T06:14:05;12.90;99.90
25718;DHT22;13574;52.040;5.692;2023-02-18T06:16:31;13.00;99.90
25718;DHT22;13574;52.040;5.692;2023-02-18T06:18:57;12.80;99.90
25718;DHT22;13574;52.040;5.692;2023-02-18T06:21:23;13.00;99.90
25718;DHT22;13574;52.040;5.692;2023-02-18T06:23:48;13.10;99.90
25718;DHT22;13574;52.040;5.692;2023-02-18T06:26:14;13.00;99.90
25718;DHT22;13574;52.040;5.692;2023-02-18T06:28:40;13.10;99.90
25718;DHT22;13574;52.040;5.692;2023-02-18T06:31:06;13.20;99.90
25718;DHT22;13574;52.040;5.692;2023-02-18T06:33:31;13.10;99.90
25718;DHT22;13574;52.040;5.692;2023-02-18T06:36:03;13.00;99.90
25718;DHT22;13574;52.040;5.692;2023-02-18T06:38:36;13.00;99.90
25718;DHT22;13574;52.040;5.692;2023-02-18T06:41:02;13.10;99.90
25718;DHT22;13574;52.040;5.692;2023-02-18T06:43:28;13.30;99.90
25718;DHT22;13574;52.040;5.692;2023-02-18T06:45:53;13.30;99.90
25718;DHT22;13574;52.040;5.692;2023-02-18T06:48:19;13.30;99.90
25718;DHT22;13574;52.040;5.692;2023-02-18T06:50:45;13.10;99.90
25718;DHT22;13574;52.040;5.692;2023-02-18T06:53:11;13.20;99.90
25718;DHT22;13574;52.040;5.692;2023-02-18T06:55:37;13.40;99.90
25718;DHT22;13574;52.040;5.692;2023-02-18T06:58:03;13.40;99.90
25718;DHT22;13574;52.040;5.692;2023-02-18T07:00:29;13.50;99.90
25718;DHT22;13574;52.040;5.692;2023-02-18T07:02:55;13.50;99.90
25718;DHT22;13574;52.040;5.692;2023-02-18T07:05:21;13.30;99.90
25718;DHT22;13574;52.040;5.692;2023-02-18T07:07:46;13.20;99.90
25718;DHT22;13574;52.040;5.692;2023-02-18T07:10:12;13.10;99.90
25718;DHT22;13574;52.040;5.692;2023-02-18T07:12:38;13.10;99.90
25718;DHT22;13574;52.040;5.692;2023-02-18T07:15:05;13.00;99.90
25718;DHT22;13574;52.040;5.692;2023-02-18T07:17:31;13.10;99.90
25718;DHT22;13574;52.040;5.692;2023-02-18T07:19:56;13.20;99.90
25718;DHT22;13574;52.040;5.692;2023-02-18T07:22:22;13.10;99.90
25718;DHT22;13574;52.040;5.692;2023-02-18T07:24:54;13.00;99.90
25718;DHT22;13574;52.040;5.692;2023-02-18T07:27:23;13.00;99.90
25718;DHT22;13574;52.040;5.692;2023-02-18T07:30:07;13.10;99.90
25718;DHT22;13574;52.040;5.692;2023-02-18T07:32:33;13.20;99.90
25718;DHT22;13574;52.040;5.692;2023-02-18T07:34:59;13.20;99.90
25718;DHT22;13574;52.040;5.692;2023-02-18T07:37:25;13.40;99.90
25718;DHT22;13574;52.040;5.692;2023-02-18T07:39:50;13.10;99.90
25718;DHT22;13574;52.040;5.692;2023-02-18T07:42:16;13.20;99.90
25718;DHT22;13574;52.040;5.692;2023-02-18T07:44:42;13.30;99.90
25718;DHT22;13574;52.040;5.692;2023-02-18T07:47:12;13.30;99.90
25718;DHT22;13574;52.040;5.692;2023-02-18T07:49:38;13.10;99.90
25718;DHT22;13574;52.040;5.692;2023-02-18T07:52:03;12.80;99.90
25718;DHT22;13574;52.040;5.692;2023-02-18T07:54:29;12.80;99.90
25718;DHT22;13574;52.040;5.692;2023-02-18T07:56:55;12.90;99.90
25718;DHT22;13574;52.040;5.692;2023-02-18T07:59:20;12.90;99.90
25718;DHT22;13574;52.040;5.692;2023-02-18T08:01:46;12.80;99.90
25718;DHT22;13574;52.040;5.692;2023-02-18T08:04:12;12.90;99.90
25718;DHT22;13574;52.040;5.692;2023-02-18T08:06:41;12.90;99.90
25718;DHT22;13574;52.040;5.692;2023-02-18T08:09:08;12.80;99.90
25718;DHT22;13574;52.040;5.692;2023-02-18T08:11:34;12.60;99.90
25718;DHT22;13574;52.040;5.692;2023-02-18T08:14:00;12.80;99.90
25718;DHT22;13574;52.040;5.692;2023-02-18T08:16:26;12.90;99.90
25718;DHT22;13574;52.040;5.692;2023-02-18T08:18:52;12.90;99.90
25718;DHT22;13574;52.040;5.692;2023-02-18T08:21:19;13.00;99.90
25718;DHT22;13574;52.040;5.692;2023-02-18T08:23:45;12.70;99.90
25718;DHT22;13574;52.040;5.692;2023-02-18T08:26:11;12.80;99.90
25718;DHT22;13574;52.040;5.692;2023-02-18T08:28:37;12.90;99.90
25718;DHT22;13574;52.040;5.692;2023-02-18T08:31:03;12.90;99.90
25718;DHT22;13574;52.040;5.692;2023-02-18T08:33:29;12.60;99.90
25718;DHT22;13574;52.040;5.692;2023-02-18T08:35:55;12.60;99.90
25718;DHT22;13574;52.040;5.692;2023-02-18T08:38:22;12.60;99.90
25718;DHT22;13574;52.040;5.692;2023-02-18T08:40:49;12.60;99.90
25718;DHT22;13574;52.040;5.692;2023-02-18T08:43:16;12.60;99.90
25718;DHT22;13574;52.040;5.692;2023-02-18T08:45:43;12.70;99.90
25718;DHT22;13574;52.040;5.692;2023-02-18T08:48:10;12.80;99.90
25718;DHT22;13574;52.040;5.692;2023-02-18T08:50:37;12.60;99.90
25718;DHT22;13574;52.040;5.692;2023-02-18T08:53:03;12.60;99.90
25718;DHT22;13574;52.040;5.692;2023-02-18T08:55:32;12.60;99.90
25718;DHT22;13574;52.040;5.692;2023-02-18T08:57:59;12.30;99.90
25718;DHT22;13574;52.040;5.692;2023-02-18T09:00:25;12.30;99.90
25718;DHT22;13574;52.040;5.692;2023-02-18T09:02:51;12.30;99.90
25718;DHT22;13574;52.040;5.692;2023-02-18T09:05:17;12.40;99.90
25718;DHT22;13574;52.040;5.692;2023-02-18T09:07:43;12.60;99.90
25718;DHT22;13574;52.040;5.692;2023-02-18T09:10:11;12.40;99.90
25718;DHT22;13574;52.040;5.692;2023-02-18T09:12:37;12.40;99.90
25718;DHT22;13574;52.040;5.692;2023-02-18T09:15:03;12.50;99.90
25718;DHT22;13574;52.040;5.692;2023-02-18T09:17:29;12.50;99.90
25718;DHT22;13574;52.040;5.692;2023-02-18T09:19:55;12.50;99.90
25718;DHT22;13574;52.040;5.692;2023-02-18T09:22:21;12.50;99.90
25718;DHT22;13574;52.040;5.692;2023-02-18T09:24:46;12.40;99.90
25718;DHT22;13574;52.040;5.692;2023-02-18T09:27:12;12.50;99.90
25718;DHT22;13574;52.040;5.692;2023-02-18T09:29:39;12.50;99.90
25718;DHT22;13574;52.040;5.692;2023-02-18T09:32:06;12.40;99.90
25718;DHT22;13574;52.040;5.692;2023-02-18T09:34:33;12.50;99.90
25718;DHT22;13574;52.040;5.692;2023-02-18T09:36:59;12.50;99.90
25718;DHT22;13574;52.040;5.692;2023-02-18T09:39:25;12.50;99.90
25718;DHT22;13574;52.040;5.692;2023-02-18T09:41:53;12.60;99.90
25718;DHT22;13574;52.040;5.692;2023-02-18T09:44:35;12.50;99.90
25718;DHT22;13574;52.040;5.692;2023-02-18T09:47:13;12.60;99.90
25718;DHT22;13574;52.040;5.692;2023-02-18T09:49:45;12.60;99.90
25718;DHT22;13574;52.040;5.692;2023-02-18T09:52:19;12.60;99.90
25718;DHT22;13574;52.040;5.692;2023-02-18T09:54:48;12.70;99.90
25718;DHT22;13574;52.040;5.692;2023-02-18T09:57:49;12.60;99.90
25718;DHT22;13574;52.040;5.692;2023-02-18T10:00:37;12.90;99.90
25718;DHT22;13574;52.040;5.692;2023-02-18T10:03:07;12.90;99.90
25718;DHT22;13574;52.040;5.692;2023-02-18T10:05:38;12.70;99.90
25718;DHT22;13574;52.040;5.692;2023-02-18T10:08:06;12.80;99.90
25718;DHT22;13574;52.040;5.692;2023-02-18T10:10:44;12.90;99.90
25718;DHT22;13574;52.040;5.692;2023-02-18T10:13:16;12.60;99.90
25718;DHT22;13574;52.040;5.692;2023-02-18T10:15:45;12.50;99.90
25718;DHT22;13574;52.040;5.692;2023-02-18T10:18:31;12.40;99.90
25718;DHT22;13574;52.040;5.692;2023-02-18T10:21:16;12.30;99.90
25718;DHT22;13574;52.040;5.692;2023-02-18T10:24:24;12.50;99.90
25718;DHT22;13574;52.040;5.692;2023-02-18T10:26:52;12.60;99.90
25718;DHT22;13574;52.040;5.692;2023-02-18T10:29:19;12.70;99.90
25718;DHT22;13574;52.040;5.692;2023-02-18T10:34:48;12.70;99.90
25718;DHT22;13574;52.040;5.692;2023-02-18T10:40:12;12.80;99.90
25718;DHT22;13574;52.040;5.692;2023-02-18T10:46:18;12.70;99.90
25718;DHT22;13574;52.040;5.692;2023-02-18T10:49:00;12.90;99.90
25718;DHT22;13574;52.040;5.692;2023-02-18T10:51:32;12.90;99.90
25718;DHT22;13574;52.040;5.692;2023-02-18T10:53:59;12.80;99.90
25718;DHT22;13574;52.040;5.692;2023-02-18T10:56:39;12.80;99.90
25718;DHT22;13574;52.040;5.692;2023-02-18T10:59:22;12.90;99.90
25718;DHT22;13574;52.040;5.692;2023-02-18T11:01:56;13.00;99.90
25718;DHT22;13574;52.040;5.692;2023-02-18T11:04:27;12.90;99.90
25718;DHT22;13574;52.040;5.692;2023-02-18T11:07:03;13.10;99.90
25718;DHT22;13574;52.040;5.692;2023-02-18T11:09:39;13.00;99.90
25718;DHT22;13574;52.040;5.692;2023-02-18T11:14:46;12.90;99.90
25718;DHT22;13574;52.040;5.692;2023-02-18T11:17:20;12.90;99.90
25718;DHT22;13574;52.040;5.692;2023-02-18T11:19:57;13.10;99.90
25718;DHT22;13574;52.040;5.692;2023-02-18T11:22:32;13.20;99.90
25718;DHT22;13574;52.040;5.692;2023-02-18T11:25:03;13.40;99.90
25718;DHT22;13574;52.040;5.692;2023-02-18T11:27:55;13.40;99.90
25718;DHT22;13574;52.040;5.692;2023-02-18T11:32:52;13.60;99.90
25718;DHT22;13574;52.040;5.692;2023-02-18T11:35:21;13.20;99.90
25718;DHT22;13574;52.040;5.692;2023-02-18T11:37:47;13.40;99.90
25718;DHT22;13574;52.040;5.692;2023-02-18T11:40:32;13.50;99.90
25718;DHT22;13574;52.040;5.692;2023-02-18T11:43:18;13.60;99.90
25718;DHT22;13574;52.040;5.692;2023-02-18T11:45:45;13.70;99.90
25718;DHT22;13574;52.040;5.692;2023-02-18T11:48:22;13.60;99.90
25718;DHT22;13574;52.040;5.692;2023-02-18T11:50:52;13.80;99.90
25718;DHT22;13574;52.040;5.692;2023-02-18T11:53:33;13.70;99.90
25718;DHT22;13574;52.040;5.692;2023-02-18T11:56:05;13.90;99.90
25718;DHT22;13574;52.040;5.692;2023-02-18T11:58:40;14.00;99.90
25718;DHT22;13574;52.040;5.692;2023-02-18T12:01:14;13.90;99.90
25718;DHT22;13574;52.040;5.692;2023-02-18T12:06:34;13.90;99.90
25718;DHT22;13574;52.040;5.692;2023-02-18T12:09:19;14.00;99.90
25718;DHT22;13574;52.040;5.692;2023-02-18T12:11:50;14.10;99.90
25718;DHT22;13574;52.040;5.692;2023-02-18T12:14:19;14.20;99.90
25718;DHT22;13574;52.040;5.692;2023-02-18T12:23:26;13.60;99.90
25718;DHT22;13574;52.040;5.692;2023-02-18T12:38:20;13.80;99.90
25718;DHT22;13574;52.040;5.692;2023-02-18T12:41:12;13.50;99.90
25718;DHT22;13574;52.040;5.692;2023-02-18T12:46:54;13.80;99.90
25718;DHT22;13574;52.040;5.692;2023-02-18T12:54:46;13.90;99.90
25718;DHT22;13574;52.040;5.692;2023-02-18T12:57:37;14.10;99.90
25718;DHT22;13574;52.040;5.692;2023-02-18T13:00:21;14.20;99.90
25718;DHT22;13574;52.040;5.692;2023-02-18T13:08:39;14.20;99.90
25718;DHT22;13574;52.040;5.692;2023-02-18T13:14:26;14.40;99.90
25718;DHT22;13574;52.040;5.692;2023-02-18T13:16:56;14.30;99.90
25718;DHT22;13574;52.040;5.692;2023-02-18T13:19:30;14.60;99.90
25718;DHT22;13574;52.040;5.692;2023-02-18T13:22:05;14.80;99.90
25718;DHT22;13574;52.040;5.692;2023-02-18T13:24:37;14.90;99.90
25718;DHT22;13574;52.040;5.692;2023-02-18T13:30:08;14.90;99.90
25718;DHT22;13574;52.040;5.692;2023-02-18T13:35:27;15.00;99.90
25718;DHT22;13574;52.040;5.692;2023-02-18T13:40:58;14.80;99.90
25718;DHT22;13574;52.040;5.692;2023-02-18T13:54:43;14.70;99.90
25718;DHT22;13574;52.040;5.692;2023-02-18T13:56:46;14.60;99.90
25718;DHT22;13574;52.040;5.692;2023-02-18T13:59:25;14.60;99.90
25718;DHT22;13574;52.040;5.692;2023-02-18T14:01:54;14.60;99.90
25718;DHT22;13574;52.040;5.692;2023-02-18T14:07:28;14.60;99.90
25718;DHT22;13574;52.040;5.692;2023-02-18T14:09:57;14.60;99.90
25718;DHT22;13574;52.040;5.692;2023-02-18T14:12:38;14.80;99.90
25718;DHT22;13574;52.040;5.692;2023-02-18T14:20:31;14.80;99.90
25718;DHT22;13574;52.040;5.692;2023-02-18T14:22:57;14.80;99.90
25718;DHT22;13574;52.040;5.692;2023-02-18T14:25:32;14.60;99.90
25718;DHT22;13574;52.040;5.692;2023-02-18T14:28:02;14.60;99.90
25718;DHT22;13574;52.040;5.692;2023-02-18T14:30:38;14.80;99.90
25718;DHT22;13574;52.040;5.692;2023-02-18T14:33:05;14.90;99.90
25718;DHT22;13574;52.040;5.692;2023-02-18T14:46:50;14.80;99.90
25718;DHT22;13574;52.040;5.692;2023-02-18T14:49:27;14.70;99.90
25718;DHT22;13574;52.040;5.692;2023-02-18T14:51:57;14.80;99.90
25718;DHT22;13574;52.040;5.692;2023-02-18T14:54:25;14.60;99.90
25718;DHT22;13574;52.040;5.692;2023-02-18T14:56:58;14.90;99.90
25718;DHT22;13574;52.040;5.692;2023-02-18T14:59:28;15.00;99.90
25718;DHT22;13574;52.040;5.692;2023-02-18T15:01:55;15.10;99.90
25718;DHT22;13574;52.040;5.692;2023-02-18T15:04:23;15.10;99.90
25718;DHT22;13574;52.040;5.692;2023-02-18T15:07:01;15.20;99.90
25718;DHT22;13574;52.040;5.692;2023-02-18T15:09:27;15.20;99.90
25718;DHT22;13574;52.040;5.692;2023-02-18T15:12:02;15.10;99.90
25718;DHT22;13574;52.040;5.692;2023-02-18T15:14:41;15.10;99.90
25718;DHT22;13574;52.040;5.692;2023-02-18T15:17:12;15.00;99.90
25718;DHT22;13574;52.040;5.692;2023-02-18T15:19:42;15.00;99.90
25718;DHT22;13574;52.040;5.692;2023-02-18T15:22:18;15.10;99.90
25718;DHT22;13574;52.040;5.692;2023-02-18T15:24:46;15.00;99.90
25718;DHT22;13574;52.040;5.692;2023-02-18T15:27:33;15.20;99.90
25718;DHT22;13574;52.040;5.692;2023-02-18T15:32:32;15.20;99.90
25718;DHT22;13574;52.040;5.692;2023-02-18T15:35:00;15.20;99.90
25718;DHT22;13574;52.040;5.692;2023-02-18T15:37:26;15.20;99.90
25718;DHT22;13574;52.040;5.692;2023-02-18T15:39:53;15.10;99.90
25718;DHT22;13574;52.040;5.692;2023-02-18T15:42:26;15.00;99.90
25718;DHT22;13574;52.040;5.692;2023-02-18T15:45:16;14.80;99.90
25718;DHT22;13574;52.040;5.692;2023-02-18T15:47:45;14.90;99.90
25718;DHT22;13574;52.040;5.692;2023-02-18T15:50:33;15.00;99.90
25718;DHT22;13574;52.040;5.692;2023-02-18T15:53:05;15.00;99.90
25718;DHT22;13574;52.040;5.692;2023-02-18T15:55:41;14.80;99.90
25718;DHT22;13574;52.040;5.692;2023-02-18T15:58:31;14.70;99.90
25718;DHT22;13574;52.040;5.692;2023-02-18T16:01:22;14.80;99.90
25718;DHT22;13574;52.040;5.692;2023-02-18T16:03:49;14.40;99.90
25718;DHT22;13574;52.040;5.692;2023-02-18T16:06:23;14.50;99.90
25718;DHT22;13574;52.040;5.692;2023-02-18T16:08:57;14.40;99.90
25718;DHT22;13574;52.040;5.692;2023-02-18T16:11:24;14.40;99.90
25718;DHT22;13574;52.040;5.692;2023-02-18T16:13:51;14.40;99.90
25718;DHT22;13574;52.040;5.692;2023-02-18T16:16:27;14.30;99.90
25718;DHT22;13574;52.040;5.692;2023-02-18T16:18:53;14.20;99.90
25718;DHT22;13574;52.040;5.692;2023-02-18T16:29:02;14.20;99.90
25718;DHT22;13574;52.040;5.692;2023-02-18T16:31:29;14.30;99.90
25718;DHT22;13574;52.040;5.692;2023-02-18T16:33:55;14.40;99.90
25718;DHT22;13574;52.040;5.692;2023-02-18T16:36:22;14.70;99.90
25718;DHT22;13574;52.040;5.692;2023-02-18T16:38:48;14.50;99.90
25718;DHT22;13574;52.040;5.692;2023-02-18T16:41:14;14.60;99.90
25718;DHT22;13574;52.040;5.692;2023-02-18T16:43:41;14.40;99.90
25718;DHT22;13574;52.040;5.692;2023-02-18T16:46:15;14.50;99.90
25718;DHT22;13574;52.040;5.692;2023-02-18T16:48:44;14.50;99.90
25718;DHT22;13574;52.040;5.692;2023-02-18T16:51:14;14.40;99.90
25718;DHT22;13574;52.040;5.692;2023-02-18T16:53:40;14.50;99.90
25718;DHT22;13574;52.040;5.692;2023-02-18T16:56:14;14.40;99.90
25718;DHT22;13574;52.040;5.692;2023-02-18T16:58:40;14.40;99.90
25718;DHT22;13574;52.040;5.692;2023-02-18T17:01:07;14.50;99.90
25718;DHT22;13574;52.040;5.692;2023-02-18T17:03:40;14.30;99.90
25718;DHT22;13574;52.040;5.692;2023-02-18T17:06:05;14.40;99.90
25718;DHT22;13574;52.040;5.692;2023-02-18T17:08:31;14.40;99.90
25718;DHT22;13574;52.040;5.692;2023-02-18T17:10:57;14.40;99.90
25718;DHT22;13574;52.040;5.692;2023-02-18T17:13:26;14.50;99.90
25718;DHT22;13574;52.040;5.692;2023-02-18T17:15:53;14.40;99.90
25718;DHT22;13574;52.040;5.692;2023-02-18T17:18:19;14.40;99.90
25718;DHT22;13574;52.040;5.692;2023-02-18T17:20:47;14.40;99.90
25718;DHT22;13574;52.040;5.692;2023-02-18T17:23:14;14.20;99.90
25718;DHT22;13574;52.040;5.692;2023-02-18T17:25:41;14.30;99.90
25718;DHT22;13574;52.040;5.692;2023-02-18T17:28:07;14.30;99.90
25718;DHT22;13574;52.040;5.692;2023-02-18T17:34:29;14.40;99.90
25718;DHT22;13574;52.040;5.692;2023-02-18T17:36:57;14.50;99.90
25718;DHT22;13574;52.040;5.692;2023-02-18T17:39:26;14.50;99.90
25718;DHT22;13574;52.040;5.692;2023-02-18T17:41:52;14.40;99.90
25718;DHT22;13574;52.040;5.692;2023-02-18T17:44:20;14.40;99.90
25718;DHT22;13574;52.040;5.692;2023-02-18T17:46:49;14.30;99.90
25718;DHT22;13574;52.040;5.692;2023-02-18T17:49:18;14.30;99.90
25718;DHT22;13574;52.040;5.692;2023-02-18T17:51:54;14.40;99.90
25718;DHT22;13574;52.040;5.692;2023-02-18T17:54:27;14.60;99.90
25718;DHT22;13574;52.040;5.692;2023-02-18T18:00:24;14.70;99.90
25718;DHT22;13574;52.040;5.692;2023-02-18T18:03:41;14.60;99.90
25718;DHT22;13574;52.040;5.692;2023-02-18T18:06:47;14.50;99.90
25718;DHT22;13574;52.040;5.692;2023-02-18T18:09:24;14.50;99.90
25718;DHT22;13574;52.040;5.692;2023-02-18T18:11:55;14.50;99.90
25718;DHT22;13574;52.040;5.692;2023-02-18T18:14:21;14.30;99.90
25718;DHT22;13574;52.040;5.692;2023-02-18T18:16:52;14.30;99.90
25718;DHT22;13574;52.040;5.692;2023-02-18T18:19:20;14.30;99.90
25718;DHT22;13574;52.040;5.692;2023-02-18T18:21:46;14.20;99.90